Connecticut — WCY4995 — position and weather

sailwx.info

Track history (hours):
 
Tides and Currents Weather Stations Pressure Air Temp Water Temp Dewpoint Dewpoint Depression Visibility Wind Speed Wind Dir Waves Ship Positions

Oceanographic research ship Connecticut (USA)

Detailed information on ship capabilities available from University of Delaware's Ocean Information Center.

Owner: CONNECTICUT, STATE OF, GROTON, CT. More information available from US FCC via Universal Licensing System and Coast Guard Vessel Documentation Center.

Last reported at 2018-Jan-26 07:42 UTC. Time now 2018-Feb-25 06:16 UTC.
Position N 42°19' W 070°32'.
Warning: this ship's position is 29 days out of date.

; draft 3 m.

Type: Other ship. MMSI: 367359940.

Date/timePositionNaut miles runAvg speedWind from/ knotsBaromVisibWave heightAir tempDewpointWater temp
2018-Jan-26 07:42N 42°19' W 070°32'2 9.6
2018-Jan-26 07:30N 42°20' W 070°32'5 9.6
2018-Jan-26 07:00N 42°25' W 070°32'5 9.9
2018-Jan-26 06:30N 42°30' W 070°32'510.1
2018-Jan-26 05:58N 42°35' W 070°31'510.1
2018-Jan-26 05:30N 42°40' W 070°31'5 9.9
2018-Jan-26 05:00N 42°45' W 070°33'5 9.7
2018-Jan-26 04:30N 42°49' W 070°35'5 9.8
2018-Jan-26 04:00N 42°54' W 070°37'88 2.8
2018-Jan-24 20:03N 43°56' W 069°10'2 9.1
2018-Jan-24 19:52N 43°56' W 069°08'3 8.4
2018-Jan-24 19:29N 43°57' W 069°04'4 7.4
2018-Jan-24 18:59N 44°00' W 069°01'3 5.9
2018-Jan-24 18:29N 44°03' W 068°60'0 0.9
2018-Jan-24 17:58N 44°03' W 068°60'0 0.9
2018-Jan-24 17:30N 44°04' W 069°00'1 2.4
2018-Jan-24 16:57N 44°04' W 069°02'0 0.3
2018-Jan-24 16:29N 44°04' W 069°02'0 0.2
2018-Jan-24 15:59N 44°04' W 069°02'0 0.8
2018-Jan-24 15:29N 44°05' W 069°01'1 1.8
2018-Jan-24 15:00N 44°04' W 069°01'1 1.1
2018-Jan-24 14:28N 44°03' W 069°01'0 1.0
2018-Jan-24 13:59N 44°03' W 069°01'1 2.6
2018-Jan-24 13:30N 44°03' W 068°60'0 0.0
2018-Jan-24 12:55N 44°03' W 068°60'0 0.0
2018-Jan-24 12:30N 44°03' W 068°60'0 0.1
2018-Jan-24 11:58N 44°03' W 068°60'3 6.1
2018-Jan-24 11:29N 44°06' W 069°02'3 4.8
2018-Jan-24 10:57N 44°06' W 069°06'0 0.0
2018-Jan-24 10:25N 44°06' W 069°06'0 0.0
2018-Jan-24 09:58N 44°06' W 069°06'0 0.0
2018-Jan-24 09:28N 44°06' W 069°06'0 0.0
2018-Jan-24 08:58N 44°06' W 069°06'0 0.0
2018-Jan-24 08:28N 44°06' W 069°06'0 0.0
2018-Jan-24 07:58N 44°06' W 069°06'0 0.0
2018-Jan-24 07:28N 44°06' W 069°06'0 0.0
2018-Jan-24 06:58N 44°06' W 069°06'0 0.0
2018-Jan-24 06:28N 44°06' W 069°06'0 0.0
2018-Jan-24 06:00N 44°06' W 069°06'0 0.0
2018-Jan-24 05:28N 44°06' W 069°06'0 0.0
2018-Jan-24 04:58N 44°06' W 069°06'0 0.0
2018-Jan-24 04:28N 44°06' W 069°06'0 0.0
2018-Jan-24 03:55N 44°06' W 069°06'0 0.0
2018-Jan-24 03:28N 44°06' W 069°06'0 0.0
2018-Jan-24 02:55N 44°06' W 069°06'0 0.0
2018-Jan-24 02:28N 44°06' W 069°06'0 0.0
2018-Jan-24 01:58N 44°06' W 069°06'0 0.0
2018-Jan-24 01:28N 44°06' W 069°06'0 0.0
2018-Jan-24 00:58N 44°06' W 069°06'0 0.0
2018-Jan-24 00:28N 44°06' W 069°06'0 0.0
2018-Jan-23 23:58N 44°06' W 069°06'0 0.0
2018-Jan-23 23:25N 44°06' W 069°06'0 0.0
2018-Jan-23 19:02N 44°06' W 069°06'0 0.0
2018-Jan-23 18:43N 44°06' W 069°06'0 0.0
2018-Jan-23 18:25N 44°06' W 069°06'0 0.1
2018-Jan-23 17:46N 44°06' W 069°06'0 0.0
2018-Jan-23 16:37N 44°06' W 069°06'0 0.1
2018-Jan-23 16:28N 44°06' W 069°06'0 0.0
2018-Jan-23 15:16N 44°06' W 069°06'0 0.0
2018-Jan-23 14:46N 44°06' W 069°06'0 0.0
2018-Jan-23 14:22N 44°06' W 069°06'0 0.0
2018-Jan-23 13:58N 44°06' W 069°06'0 0.0
2018-Jan-23 11:46N 44°06' W 069°06'0 0.0
2018-Jan-23 11:28N 44°06' W 069°06'0 0.0
2018-Jan-23 10:55N 44°06' W 069°06'0 0.0
2018-Jan-23 10:28N 44°06' W 069°06'0 0.0
2018-Jan-23 09:55N 44°06' W 069°06'0 0.1
2018-Jan-23 09:28N 44°06' W 069°06'2 3.8
2018-Jan-23 09:00N 44°06' W 069°03'4 8.2
2018-Jan-23 08:30N 44°08' W 068°58'4 8.9
2018-Jan-23 08:00N 44°12' W 068°55'4 0.4
2018-Jan-22 23:12N 44°08' W 068°57'3 8.3
2018-Jan-22 22:49N 44°06' W 068°60'3 7.8
2018-Jan-22 22:29N 44°03' W 068°59'4 7.9
2018-Jan-22 22:00N 44°00' W 068°56'  
2018-Jan-18 11:51N 42°53' W 070°36'3 8.4
2018-Jan-18 11:30N 42°51' W 070°35'4 8.3
2018-Jan-18 11:00N 42°47' W 070°33'4 8.5
2018-Jan-18 10:30N 42°43' W 070°30'4 8.0
2018-Jan-18 10:00N 42°39' W 070°29'4 7.6
2018-Jan-18 09:30N 42°35' W 070°29'4 8.1
2018-Jan-18 09:00N 42°31' W 070°29'4 8.2
2018-Jan-18 08:30N 42°27' W 070°29'4 8.4
2018-Jan-18 08:00N 42°23' W 070°29'4 8.2
2018-Jan-18 07:30N 42°19' W 070°29'  
Track history (hours):
 
Tides and Currents Weather Stations Pressure Air Temp Water Temp Dewpoint Dewpoint Depression Visibility Wind Speed Wind Dir Waves Ship Positions

Oceanographic research ship Connecticut (USA)

Detailed information on ship capabilities available from University of Delaware's Ocean Information Center.

Owner: CONNECTICUT, STATE OF, GROTON, CT. More information available from US FCC via Universal Licensing System and Coast Guard Vessel Documentation Center.

Last reported at 2018-Jan-26 07:42 UTC. Time now 2018-Feb-25 06:16 UTC.
Position N 42°19' W 070°32'.
Warning: this ship's position is 29 days out of date.

; draft 3 m.

Type: Other ship. MMSI: 367359940.

Date/timePositionNaut miles runAvg speedWind from/ knotsBaromVisibWave heightAir tempDewpointWater temp
2018-Jan-26 07:42N 42°19' W 070°32'2 9.6
2018-Jan-26 07:30N 42°20' W 070°32'5 9.6
2018-Jan-26 07:00N 42°25' W 070°32'5 9.9
2018-Jan-26 06:30N 42°30' W 070°32'510.1
2018-Jan-26 05:58N 42°35' W 070°31'510.1
2018-Jan-26 05:30N 42°40' W 070°31'5 9.9
2018-Jan-26 05:00N 42°45' W 070°33'5 9.7
2018-Jan-26 04:30N 42°49' W 070°35'5 9.8
2018-Jan-26 04:00N 42°54' W 070°37'88 2.8
2018-Jan-24 20:03N 43°56' W 069°10'2 9.1
2018-Jan-24 19:52N 43°56' W 069°08'3 8.4
2018-Jan-24 19:29N 43°57' W 069°04'4 7.4
2018-Jan-24 18:59N 44°00' W 069°01'3 5.9
2018-Jan-24 18:29N 44°03' W 068°60'0 0.9
2018-Jan-24 17:58N 44°03' W 068°60'0 0.9
2018-Jan-24 17:30N 44°04' W 069°00'1 2.4
2018-Jan-24 16:57N 44°04' W 069°02'0 0.3
2018-Jan-24 16:29N 44°04' W 069°02'0 0.2
2018-Jan-24 15:59N 44°04' W 069°02'0 0.8
2018-Jan-24 15:29N 44°05' W 069°01'1 1.8
2018-Jan-24 15:00N 44°04' W 069°01'1 1.1
2018-Jan-24 14:28N 44°03' W 069°01'0 1.0
2018-Jan-24 13:59N 44°03' W 069°01'1 2.6
2018-Jan-24 13:30N 44°03' W 068°60'0 0.0
2018-Jan-24 12:55N 44°03' W 068°60'0 0.0
2018-Jan-24 12:30N 44°03' W 068°60'0 0.1
2018-Jan-24 11:58N 44°03' W 068°60'3 6.1
2018-Jan-24 11:29N 44°06' W 069°02'3 4.8
2018-Jan-24 10:57N 44°06' W 069°06'0 0.0
2018-Jan-24 10:25N 44°06' W 069°06'0 0.0
2018-Jan-24 09:58N 44°06' W 069°06'0 0.0
2018-Jan-24 09:28N 44°06' W 069°06'0 0.0
2018-Jan-24 08:58N 44°06' W 069°06'0 0.0
2018-Jan-24 08:28N 44°06' W 069°06'0 0.0
2018-Jan-24 07:58N 44°06' W 069°06'0 0.0
2018-Jan-24 07:28N 44°06' W 069°06'0 0.0
2018-Jan-24 06:58N 44°06' W 069°06'0 0.0
2018-Jan-24 06:28N 44°06' W 069°06'0 0.0
2018-Jan-24 06:00N 44°06' W 069°06'0 0.0
2018-Jan-24 05:28N 44°06' W 069°06'0 0.0
2018-Jan-24 04:58N 44°06' W 069°06'0 0.0
2018-Jan-24 04:28N 44°06' W 069°06'0 0.0
2018-Jan-24 03:55N 44°06' W 069°06'0 0.0
2018-Jan-24 03:28N 44°06' W 069°06'0 0.0
2018-Jan-24 02:55N 44°06' W 069°06'0 0.0
2018-Jan-24 02:28N 44°06' W 069°06'0 0.0
2018-Jan-24 01:58N 44°06' W 069°06'0 0.0
2018-Jan-24 01:28N 44°06' W 069°06'0 0.0
2018-Jan-24 00:58N 44°06' W 069°06'0 0.0
2018-Jan-24 00:28N 44°06' W 069°06'0 0.0
2018-Jan-23 23:58N 44°06' W 069°06'0 0.0
2018-Jan-23 23:25N 44°06' W 069°06'0 0.0
2018-Jan-23 19:02N 44°06' W 069°06'0 0.0
2018-Jan-23 18:43N 44°06' W 069°06'0 0.0
2018-Jan-23 18:25N 44°06' W 069°06'0 0.1
2018-Jan-23 17:46N 44°06' W 069°06'0 0.0
2018-Jan-23 16:37N 44°06' W 069°06'0 0.1
2018-Jan-23 16:28N 44°06' W 069°06'0 0.0
2018-Jan-23 15:16N 44°06' W 069°06'0 0.0
2018-Jan-23 14:46N 44°06' W 069°06'0 0.0
2018-Jan-23 14:22N 44°06' W 069°06'0 0.0
2018-Jan-23 13:58N 44°06' W 069°06'0 0.0
2018-Jan-23 11:46N 44°06' W 069°06'0 0.0
2018-Jan-23 11:28N 44°06' W 069°06'0 0.0
2018-Jan-23 10:55N 44°06' W 069°06'0 0.0
2018-Jan-23 10:28N 44°06' W 069°06'0 0.0
2018-Jan-23 09:55N 44°06' W 069°06'0 0.1
2018-Jan-23 09:28N 44°06' W 069°06'2 3.8
2018-Jan-23 09:00N 44°06' W 069°03'4 8.2
2018-Jan-23 08:30N 44°08' W 068°58'4 8.9
2018-Jan-23 08:00N 44°12' W 068°55'4 0.4
2018-Jan-22 23:12N 44°08' W 068°57'3 8.3
2018-Jan-22 22:49N 44°06' W 068°60'3 7.8
2018-Jan-22 22:29N 44°03' W 068°59'4 7.9
2018-Jan-22 22:00N 44°00' W 068°56'  
2018-Jan-18 11:51N 42°53' W 070°36'3 8.4
2018-Jan-18 11:30N 42°51' W 070°35'4 8.3
2018-Jan-18 11:00N 42°47' W 070°33'4 8.5
2018-Jan-18 10:30N 42°43' W 070°30'4 8.0
2018-Jan-18 10:00N 42°39' W 070°29'4 7.6
2018-Jan-18 09:30N 42°35' W 070°29'4 8.1
2018-Jan-18 09:00N 42°31' W 070°29'4 8.2
2018-Jan-18 08:30N 42°27' W 070°29'4 8.4
2018-Jan-18 08:00N 42°23' W 070°29'4 8.2
2018-Jan-18 07:30N 42°19' W 070°29'  

Dump ship's entire track history